Time;durP1;ratioP1;P1;durP2;ratioP2;P2;SDS_P1;SDS_P2;PMS_P1;PMS_P2;Temp;Humidity;BMP_temperature;BMP_pressure;BME280_temperature;BME280_humidity;BME280_pressure;Samples;Min_cycle;Max_cycle;Signal;HPM_P1;HPM_P2
2023/02/14 00:00:01;;;;;;;6.97;5.70;;;;;;;;;;4993582;28;20443;-44
2023/02/14 00:02:27;;;;;;;6.77;5.63;;;;;;;;;;4995015;28;20824;-44
2023/02/14 00:04:52;;;;;;;6.30;5.20;;;;;;;;;;4994984;28;20417;-44
2023/02/14 00:07:18;;;;;;;7.80;6.13;;;;;;;;;;4994982;28;20496;-44
2023/02/14 00:09:44;;;;;;;10.23;6.47;;;;;;;;;;4994348;28;20468;-45
2023/02/14 00:12:10;;;;;;;8.03;5.73;;;;;;;;;;4994333;28;20410;-44
2023/02/14 00:17:21;;;;;;;8.00;5.23;;;;;;;;;;4987949;28;20764;-44
2023/02/14 00:19:47;;;;;;;7.93;5.90;;;;;;;;;;5000512;28;20426;-44
2023/02/14 00:22:13;;;;;;;7.53;5.37;;;;;;;;;;4994427;28;20415;-44
2023/02/14 00:24:39;;;;;;;7.10;6.23;;;;;;;;;;4994328;28;20417;-44
2023/02/14 00:27:05;;;;;;;10.70;6.00;;;;;;;;;;4994645;28;20414;-44
2023/02/14 00:29:32;;;;;;;9.07;6.30;;;;;;;;;;4994260;28;20465;-44
2023/02/14 00:31:58;;;;;;;10.73;7.07;;;;;;;;;;4993763;28;20438;-44
2023/02/14 00:34:24;;;;;;;9.53;6.00;;;;;;;;;;4994581;28;20413;-44
2023/02/14 00:36:50;;;;;;;7.70;5.97;;;;;;;;;;4994358;28;20406;-44
2023/02/14 00:39:17;;;;;;;10.90;6.30;;;;;;;;;;4993880;28;20504;-44
2023/02/14 00:41:43;;;;;;;7.20;5.70;;;;;;;;;;4993757;28;20416;-44
2023/02/14 00:44:10;;;;;;;7.60;5.87;;;;;;;;;;4994400;28;20406;-44
2023/02/14 00:46:36;;;;;;;10.37;7.00;;;;;;;;;;4994370;28;20413;-44
2023/02/14 00:49:02;;;;;;;11.43;6.67;;;;;;;;;;4993618;28;20477;-44
2023/02/14 00:51:28;;;;;;;8.00;6.53;;;;;;;;;;4993470;28;20414;-44
2023/02/14 00:53:54;;;;;;;8.87;5.57;;;;;;;;;;4994022;28;20472;-44
2023/02/14 00:56:21;;;;;;;7.03;6.03;;;;;;;;;;4996742;28;21022;-44
2023/02/14 00:58:47;;;;;;;7.40;5.70;;;;;;;;;;4993835;28;20568;-44
2023/02/14 01:01:14;;;;;;;7.00;5.17;;;;;;;;;;4993509;28;20457;-44
2023/02/14 01:03:40;;;;;;;5.77;5.07;;;;;;;;;;4993994;28;20413;-44
2023/02/14 01:06:06;;;;;;;8.20;5.90;;;;;;;;;;4993992;28;20409;-44
2023/02/14 01:08:32;;;;;;;8.70;6.10;;;;;;;;;;4993594;28;20457;-44
2023/02/14 01:11:05;;;;;;;7.80;5.70;;;;;;;;;;4993131;28;20476;-44
2023/02/14 01:13:31;;;;;;;6.53;5.83;;;;;;;;;;4993953;28;20517;-44
2023/02/14 01:15:57;;;;;;;9.07;6.57;;;;;;;;;;4993753;28;20417;-44
2023/02/14 01:18:23;;;;;;;7.30;5.50;;;;;;;;;;4993612;28;20414;-44
2023/02/14 01:20:49;;;;;;;7.10;6.37;;;;;;;;;;4992587;28;20417;-44
2023/02/14 01:23:15;;;;;;;10.10;6.93;;;;;;;;;;4993700;28;20438;-45
2023/02/14 01:25:41;;;;;;;9.37;6.37;;;;;;;;;;4997829;28;20413;-44
2023/02/14 01:28:07;;;;;;;9.40;6.43;;;;;;;;;;4994083;28;20468;-45
2023/02/14 01:30:34;;;;;;;8.20;6.30;;;;;;;;;;4992496;28;20441;-44
2023/02/14 01:33:00;;;;;;;8.90;6.77;;;;;;;;;;4993200;28;20459;-44
2023/02/14 01:35:26;;;;;;;9.30;5.60;;;;;;;;;;4993275;28;20788;-44
2023/02/14 01:37:52;;;;;;;7.53;5.50;;;;;;;;;;4992736;28;20417;-44
2023/02/14 01:40:18;;;;;;;8.23;6.03;;;;;;;;;;4992339;28;20437;-44
2023/02/14 01:42:44;;;;;;;9.47;6.50;;;;;;;;;;4993491;28;20408;-44
2023/02/14 01:45:18;;;;;;;7.40;6.07;;;;;;;;;;4993014;28;20781;-44
2023/02/14 01:47:45;;;;;;;8.57;5.90;;;;;;;;;;4993102;28;20419;-44
2023/02/14 01:50:14;;;;;;;8.03;6.13;;;;;;;;;;4991552;28;20467;-44
2023/02/14 01:52:52;;;;;;;10.83;6.60;;;;;;;;;;4993215;28;20927;-44
2023/02/14 01:55:21;;;;;;;14.50;6.47;;;;;;;;;;4985607;28;20768;-44
2023/02/14 01:57:49;;;;;;;8.70;6.40;;;;;;;;;;4992998;28;20772;-44
2023/02/14 02:03:00;;;;;;;13.48;7.10;;;;;;;;;;4992834;28;20411;-44
2023/02/14 02:05:26;;;;;;;12.23;7.43;;;;;;;;;;4992801;28;20169;-44
2023/02/14 02:07:53;;;;;;;8.23;6.70;;;;;;;;;;4992698;28;20891;-44
2023/02/14 02:10:19;;;;;;;12.35;6.75;;;;;;;;;;4991718;28;20287;-44
2023/02/14 02:12:45;;;;;;;11.30;6.97;;;;;;;;;;4992858;28;20200;-43
2023/02/14 02:15:11;;;;;;;8.65;6.55;;;;;;;;;;4992343;28;20800;-44
2023/02/14 02:17:48;;;;;;;8.70;6.47;;;;;;;;;;4992967;28;20171;-44
2023/02/14 02:20:33;;;;;;;8.20;6.45;;;;;;;;;;4983999;28;20485;-44
2023/02/14 02:23:17;;;;;;;11.37;7.37;;;;;;;;;;4992491;28;20200;-44
2023/02/14 02:26:02;;;;;;;8.43;6.50;;;;;;;;;;4996947;28;20419;-44
2023/02/14 02:28:46;;;;;;;11.25;7.80;;;;;;;;;;4986132;28;20520;-44
2023/02/14 02:31:31;;;;;;;9.20;6.53;;;;;;;;;;4991200;28;20239;-44
2023/02/14 02:34:12;;;;;;;9.88;6.90;;;;;;;;;;4992194;28;20959;-44
2023/02/14 02:36:59;;;;;;;10.35;7.00;;;;;;;;;;4992501;28;20179;-44
2023/02/14 02:39:41;;;;;;;9.00;6.00;;;;;;;;;;4985836;28;20280;-44
2023/02/14 02:42:26;;;;;;;9.73;6.82;;;;;;;;;;4991294;28;20268;-43
2023/02/14 02:45:05;;;;;;;6.93;5.50;;;;;;;;;;4992131;28;20235;-44
2023/02/14 02:47:31;;;;;;;9.65;7.32;;;;;;;;;;4992227;28;20202;-44
2023/02/14 02:56:45;;;;;;;8.13;7.30;;;;;;;;;;4990192;28;20178;-44
2023/02/14 02:59:17;;;;;;;11.52;7.57;;;;;;;;;;4974988;28;20201;-44
2023/02/14 03:01:46;;;;;;;10.20;6.97;;;;;;;;;;4997077;28;20310;-43
2023/02/14 03:06:58;;;;;;;10.27;7.53;;;;;;;;;;4988655;28;20300;-43
2023/02/14 03:09:27;;;;;;;9.30;6.93;;;;;;;;;;4991814;28;20565;-44
2023/02/14 03:12:08;;;;;;;10.75;7.18;;;;;;;;;;4991469;28;20183;-44
2023/02/14 03:14:38;;;;;;;9.30;7.28;;;;;;;;;;4993249;28;20260;-44
2023/02/14 03:17:05;;;;;;;7.93;6.95;;;;;;;;;;4991651;28;20536;-44
2023/02/14 03:19:31;;;;;;;14.82;7.45;;;;;;;;;;4991786;28;20295;-44
2023/02/14 03:22:24;;;;;;;10.23;7.40;;;;;;;;;;4991333;28;20223;-44
2023/02/14 03:24:57;;;;;;;11.00;8.43;;;;;;;;;;4991048;28;20490;-44
2023/02/14 03:27:34;;;;;;;10.50;7.38;;;;;;;;;;4991964;28;20181;-44
2023/02/14 03:30:12;;;;;;;15.60;7.18;;;;;;;;;;4991835;28;20614;-44
2023/02/14 03:32:43;;;;;;;10.07;7.03;;;;;;;;;;4991842;28;20212;-44
2023/02/14 03:35:14;;;;;;;13.07;7.85;;;;;;;;;;4991828;28;20177;-44
2023/02/14 03:37:49;;;;;;;13.00;8.27;;;;;;;;;;4991945;28;20185;-44
2023/02/14 03:40:15;;;;;;;12.90;8.82;;;;;;;;;;4990913;28;20262;-44
2023/02/14 03:42:44;;;;;;;12.50;7.50;;;;;;;;;;4991740;28;20174;-44
2023/02/14 03:45:11;;;;;;;9.35;6.40;;;;;;;;;;4991601;28;20420;-44
2023/02/14 03:47:40;;;;;;;10.77;7.70;;;;;;;;;;4990228;28;20661;-44
2023/02/14 03:50:09;;;;;;;9.05;7.13;;;;;;;;;;4994517;28;20212;-44
2023/02/14 03:52:36;;;;;;;12.38;8.45;;;;;;;;;;4999403;28;20165;-44
2023/02/14 03:55:03;;;;;;;10.90;8.00;;;;;;;;;;4991887;28;20617;-44
2023/02/14 03:57:31;;;;;;;11.65;8.15;;;;;;;;;;4991695;28;20191;-44
2023/02/14 03:59:57;;;;;;;8.73;7.03;;;;;;;;;;4992579;28;20208;-44
2023/02/14 04:02:29;;;;;;;11.52;8.27;;;;;;;;;;4994604;28;20177;-44
2023/02/14 04:04:56;;;;;;;9.85;7.53;;;;;;;;;;4975383;28;20182;-44
2023/02/14 04:07:22;;;;;;;11.60;9.48;;;;;;;;;;4995343;28;20235;-44
2023/02/14 04:09:49;;;;;;;10.90;8.20;;;;;;;;;;4994851;28;20212;-44
2023/02/14 04:12:15;;;;;;;17.38;9.25;;;;;;;;;;4994318;28;20794;-44
2023/02/14 04:14:41;;;;;;;13.05;8.98;;;;;;;;;;4994997;28;20184;-44
2023/02/14 04:19:52;;;;;;;13.95;9.05;;;;;;;;;;4994924;28;20636;-44
2023/02/14 04:22:18;;;;;;;13.10;8.50;;;;;;;;;;4994041;28;20212;-44
2023/02/14 04:24:44;;;;;;;14.93;8.80;;;;;;;;;;4995155;28;20408;-44
2023/02/14 04:27:10;;;;;;;12.37;8.83;;;;;;;;;;4994833;28;20841;-44
2023/02/14 04:29:47;;;;;;;13.00;9.27;;;;;;;;;;4994372;28;20472;-44
2023/02/14 04:32:17;;;;;;;18.15;10.43;;;;;;;;;;4993624;28;20246;-44
2023/02/14 04:34:44;;;;;;;13.63;8.70;;;;;;;;;;4994828;28;20180;-44
2023/02/14 04:37:10;;;;;;;20.35;10.30;;;;;;;;;;4994562;28;20657;-43
2023/02/14 04:39:36;;;;;;;16.35;9.30;;;;;;;;;;4994310;28;20205;-44
2023/02/14 04:42:03;;;;;;;15.95;8.73;;;;;;;;;;4993810;28;20180;-44
2023/02/14 04:44:29;;;;;;;14.93;9.38;;;;;;;;;;4994416;28;20173;-44
2023/02/14 04:46:55;;;;;;;14.67;9.37;;;;;;;;;;4994385;28;20227;-44
2023/02/14 04:49:21;;;;;;;12.00;8.30;;;;;;;;;;4994112;28;21077;-44
2023/02/14 04:51:47;;;;;;;16.48;10.07;;;;;;;;;;4994322;28;20408;-44
2023/02/14 04:54:12;;;;;;;16.87;9.83;;;;;;;;;;4986821;28;20589;-44
2023/02/14 04:56:38;;;;;;;20.20;10.67;;;;;;;;;;4994901;28;20479;-44
2023/02/14 04:59:05;;;;;;;17.90;10.73;;;;;;;;;;4993594;28;20436;-44
2023/02/14 05:01:31;;;;;;;17.65;11.38;;;;;;;;;;4993215;28;20439;-44
2023/02/14 05:03:57;;;;;;;14.68;10.40;;;;;;;;;;4993871;28;20185;-44
2023/02/14 05:06:23;;;;;;;14.87;9.40;;;;;;;;;;4993955;28;20629;-44
2023/02/14 05:08:49;;;;;;;17.57;11.83;;;;;;;;;;4993871;28;20471;-44
2023/02/14 05:11:15;;;;;;;14.03;9.83;;;;;;;;;;4992720;28;20401;-44
2023/02/14 05:13:41;;;;;;;18.70;10.80;;;;;;;;;;4993224;28;20439;-44
2023/02/14 05:16:07;;;;;;;19.70;9.73;;;;;;;;;;4993590;28;20447;-44
2023/02/14 05:18:32;;;;;;;19.57;10.40;;;;;;;;;;4993658;28;20416;-44
2023/02/14 05:20:58;;;;;;;21.07;11.80;;;;;;;;;;4992955;28;20420;-44
2023/02/14 05:23:24;;;;;;;15.40;10.57;;;;;;;;;;4993488;28;20413;-43
2023/02/14 05:25:51;;;;;;;18.60;12.27;;;;;;;;;;4993427;28;20415;-44
2023/02/14 05:28:18;;;;;;;17.05;10.75;;;;;;;;;;4993266;28;21030;-44
2023/02/14 05:30:44;;;;;;;19.73;10.85;;;;;;;;;;4992945;28;20174;-44
2023/02/14 05:33:10;;;;;;;19.63;11.70;;;;;;;;;;4993207;28;20185;-44
2023/02/14 05:35:36;;;;;;;24.63;12.43;;;;;;;;;;4993408;28;20423;-44
2023/02/14 05:38:02;;;;;;;23.52;12.68;;;;;;;;;;4993376;28;20439;-44
2023/02/14 05:40:28;;;;;;;28.87;13.70;;;;;;;;;;4992826;28;20680;-44
2023/02/14 05:42:54;;;;;;;21.90;12.75;;;;;;;;;;4993102;28;20896;-44
2023/02/14 05:45:21;;;;;;;26.75;13.13;;;;;;;;;;4993100;28;20181;-43
2023/02/14 05:47:47;;;;;;;21.80;13.32;;;;;;;;;;4993032;28;20165;-43
2023/02/14 05:50:13;;;;;;;23.15;14.00;;;;;;;;;;4993076;28;20264;-44
2023/02/14 05:52:39;;;;;;;19.93;11.60;;;;;;;;;;4992502;28;20181;-43
2023/02/14 05:55:05;;;;;;;25.03;13.50;;;;;;;;;;4992843;28;20451;-44
2023/02/14 05:57:31;;;;;;;22.73;12.80;;;;;;;;;;4992871;28;20466;-44
2023/02/14 05:59:57;;;;;;;20.90;13.20;;;;;;;;;;4992757;28;20205;-44
2023/02/14 06:02:23;;;;;;;28.60;15.17;;;;;;;;;;4992402;28;20934;-44
2023/02/14 06:04:49;;;;;;;21.27;12.73;;;;;;;;;;4992880;28;20911;-43
2023/02/14 06:07:15;;;;;;;28.92;15.02;;;;;;;;;;4992836;28;20648;-44
2023/02/14 06:09:41;;;;;;;26.33;14.57;;;;;;;;;;4992567;28;20236;-44
2023/02/14 06:12:07;;;;;;;29.23;14.80;;;;;;;;;;4991937;28;20448;-44
2023/02/14 06:14:33;;;;;;;32.00;16.23;;;;;;;;;;4992551;28;20267;-44
2023/02/14 06:16:59;;;;;;;33.70;16.87;;;;;;;;;;4992560;28;20427;-44
2023/02/14 06:19:25;;;;;;;29.00;16.37;;;;;;;;;;4992385;28;20436;-44
2023/02/14 06:21:51;;;;;;;31.47;15.87;;;;;;;;;;4991944;28;20412;-44
2023/02/14 06:24:17;;;;;;;26.83;14.43;;;;;;;;;;4992170;28;20908;-44
2023/02/14 06:26:43;;;;;;;32.03;16.10;;;;;;;;;;4992420;28;20408;-44
2023/02/14 06:29:09;;;;;;;30.10;15.60;;;;;;;;;;4992508;28;20542;-44
2023/02/14 06:31:35;;;;;;;31.30;16.07;;;;;;;;;;4991644;28;20450;-44
2023/02/14 06:34:01;;;;;;;24.67;13.60;;;;;;;;;;4992205;28;20503;-44
2023/02/14 06:36:27;;;;;;;26.37;13.17;;;;;;;;;;4992418;28;20408;-44
2023/02/14 06:38:53;;;;;;;21.83;12.83;;;;;;;;;;4992111;28;20440;-44
2023/02/14 06:41:19;;;;;;;28.63;13.93;;;;;;;;;;4991547;28;20408;-44
2023/02/14 06:43:48;;;;;;;23.83;11.83;;;;;;;;;;4992447;28;20462;-44
2023/02/14 06:46:15;;;;;;;14.27;9.00;;;;;;;;;;4984141;28;20438;-43
2023/02/14 06:48:41;;;;;;;25.98;12.52;;;;;;;;;;4997660;28;20212;-44
2023/02/14 06:51:07;;;;;;;24.65;12.85;;;;;;;;;;4992725;28;20255;-43
2023/02/14 06:53:33;;;;;;;23.50;13.13;;;;;;;;;;4992260;28;20656;-44
2023/02/14 06:56:00;;;;;;;24.30;14.32;;;;;;;;;;4993756;28;20177;-44
2023/02/14 06:58:26;;;;;;;37.70;17.58;;;;;;;;;;4992174;28;20276;-43
2023/02/14 07:00:54;;;;;;;32.15;15.63;;;;;;;;;;4991383;28;20308;-44
2023/02/14 07:03:20;;;;;;;34.40;17.30;;;;;;;;;;4992107;28;20519;-44
2023/02/14 07:05:46;;;;;;;27.30;14.97;;;;;;;;;;4991968;28;20172;-44
2023/02/14 07:08:12;;;;;;;31.27;18.03;;;;;;;;;;4992139;28;20851;-44
2023/02/14 07:10:38;;;;;;;28.33;14.87;;;;;;;;;;4991188;28;20432;-44
2023/02/14 07:13:04;;;;;;;27.88;14.30;;;;;;;;;;4991053;28;20509;-44
2023/02/14 07:15:30;;;;;;;28.55;14.40;;;;;;;;;;4991718;28;20176;-44
2023/02/14 07:17:56;;;;;;;25.70;14.27;;;;;;;;;;4991597;28;20181;-44
2023/02/14 07:20:22;;;;;;;34.30;14.07;;;;;;;;;;4991960;28;20452;-44
2023/02/14 07:22:48;;;;;;;26.55;13.80;;;;;;;;;;4991149;28;20447;-44
2023/02/14 07:25:14;;;;;;;24.07;13.43;;;;;;;;;;4991457;28;20197;-44
2023/02/14 07:27:40;;;;;;;23.80;12.90;;;;;;;;;;4991650;28;20895;-44
2023/02/14 07:30:07;;;;;;;28.17;12.80;;;;;;;;;;4991254;28;20482;-44
2023/02/14 07:32:33;;;;;;;19.25;11.68;;;;;;;;;;4990912;28;20438;-44
2023/02/14 07:34:59;;;;;;;21.17;10.53;;;;;;;;;;4992270;28;20184;-44
2023/02/14 07:37:25;;;;;;;25.00;11.70;;;;;;;;;;4995414;28;20416;-44
2023/02/14 07:39:51;;;;;;;21.37;12.07;;;;;;;;;;4994053;28;20429;-44
2023/02/14 07:42:17;;;;;;;23.50;12.60;;;;;;;;;;4994295;28;20419;-44
2023/02/14 07:44:45;;;;;;;17.90;11.20;;;;;;;;;;4995355;28;20427;-44
2023/02/14 07:47:11;;;;;;;21.77;11.50;;;;;;;;;;4994904;28;20928;-44
2023/02/14 07:49:37;;;;;;;18.53;10.97;;;;;;;;;;4991433;28;20463;-44
2023/02/14 07:52:03;;;;;;;23.30;12.53;;;;;;;;;;5000184;28;20410;-44
2023/02/14 07:54:29;;;;;;;17.35;11.35;;;;;;;;;;4995292;28;20419;-44
2023/02/14 07:56:55;;;;;;;23.93;11.40;;;;;;;;;;4994998;28;20257;-43
2023/02/14 07:59:21;;;;;;;16.90;9.80;;;;;;;;;;4995028;28;21018;-44
2023/02/14 08:01:47;;;;;;;16.67;10.40;;;;;;;;;;4994524;28;20438;-44
2023/02/14 08:04:13;;;;;;;21.10;11.07;;;;;;;;;;4995196;28;20455;-44
2023/02/14 08:06:40;;;;;;;25.50;12.40;;;;;;;;;;4997597;28;20422;-44
2023/02/14 08:09:06;;;;;;;17.10;10.10;;;;;;;;;;4995257;28;20478;-44
2023/02/14 08:14:17;;;;;;;18.00;10.77;;;;;;;;;;4987909;28;20403;-44
2023/02/14 08:16:43;;;;;;;18.57;10.53;;;;;;;;;;4994855;28;20404;-44
2023/02/14 08:19:09;;;;;;;15.87;10.00;;;;;;;;;;4994610;28;20836;-44
2023/02/14 08:21:35;;;;;;;17.43;9.43;;;;;;;;;;4994267;28;20533;-44
2023/02/14 08:24:00;;;;;;;19.90;9.00;;;;;;;;;;4993073;28;20422;-44
2023/02/14 08:26:26;;;;;;;18.27;10.20;;;;;;;;;;4994574;28;20500;-44
2023/02/14 08:28:53;;;;;;;14.83;9.27;;;;;;;;;;4994268;28;20471;-44
2023/02/14 08:31:23;;;;;;;15.33;9.73;;;;;;;;;;4993626;28;20451;-44
2023/02/14 08:33:49;;;;;;;14.23;9.00;;;;;;;;;;4994376;28;20409;-44
2023/02/14 08:36:16;;;;;;;15.37;10.07;;;;;;;;;;4994623;28;20416;-44
2023/02/14 08:38:44;;;;;;;18.27;9.40;;;;;;;;;;4993851;28;20798;-44
2023/02/14 08:41:10;;;;;;;14.63;9.73;;;;;;;;;;4993247;28;20926;-44
2023/02/14 08:43:36;;;;;;;15.27;9.10;;;;;;;;;;5000458;28;20421;-44
2023/02/14 08:46:02;;;;;;;16.77;9.50;;;;;;;;;;4995554;28;20856;-44
2023/02/14 08:48:27;;;;;;;21.23;11.27;;;;;;;;;;4994134;28;20518;-44
2023/02/14 08:50:54;;;;;;;16.70;10.23;;;;;;;;;;4993570;28;20423;-44
2023/02/14 08:53:20;;;;;;;13.90;9.07;;;;;;;;;;4994210;28;20411;-44
2023/02/14 08:55:46;;;;;;;13.10;9.53;;;;;;;;;;4994056;28;20434;-44
2023/02/14 08:58:13;;;;;;;16.60;10.40;;;;;;;;;;4993792;28;20487;-44
2023/02/14 09:00:39;;;;;;;19.03;11.30;;;;;;;;;;4992452;28;20449;-44
2023/02/14 09:03:05;;;;;;;16.73;11.37;;;;;;;;;;4997501;28;20386;-44
2023/02/14 09:05:31;;;;;;;14.03;10.00;;;;;;;;;;4996067;28;20411;-44
2023/02/14 09:07:57;;;;;;;12.63;10.10;;;;;;;;;;4995758;28;20440;-44
2023/02/14 09:10:23;;;;;;;18.43;9.97;;;;;;;;;;4993964;28;20511;-44
2023/02/14 09:12:49;;;;;;;16.80;9.87;;;;;;;;;;4993362;28;20479;-44
2023/02/14 09:15:15;;;;;;;10.80;8.17;;;;;;;;;;4994037;28;20390;-45
2023/02/14 09:17:41;;;;;;;14.03;9.50;;;;;;;;;;4993601;28;20404;-44
2023/02/14 09:20:09;;;;;;;12.23;9.10;;;;;;;;;;4993608;28;20501;-47
2023/02/14 09:22:35;;;;;;;11.57;9.33;;;;;;;;;;4993037;28;20388;-47
2023/02/14 09:25:01;;;;;;;17.37;9.70;;;;;;;;;;4993243;28;20414;-47
2023/02/14 09:27:27;;;;;;;13.93;9.00;;;;;;;;;;4991574;28;20416;-48
2023/02/14 09:29:53;;;;;;;16.80;9.43;;;;;;;;;;4993204;28;20510;-49
2023/02/14 09:32:19;;;;;;;13.23;9.47;;;;;;;;;;4992918;28;20471;-49
2023/02/14 09:34:45;;;;;;;12.00;9.30;;;;;;;;;;4992651;28;21091;-49
2023/02/14 09:37:12;;;;;;;12.23;8.90;;;;;;;;;;4993218;28;20487;-48
2023/02/14 09:39:38;;;;;;;11.17;8.53;;;;;;;;;;4993110;28;20442;-49
2023/02/14 09:42:19;;;;;;;9.00;7.67;;;;;;;;;;4993052;28;20428;-49
2023/02/14 09:44:57;;;;;;;8.93;7.33;;;;;;;;;;4993434;28;20450;-47
2023/02/14 09:47:43;;;;;;;9.60;8.30;;;;;;;;;;4987974;28;20985;-47
2023/02/14 09:50:18;;;;;;;12.70;7.67;;;;;;;;;;4993257;28;20472;-49
2023/02/14 09:52:46;;;;;;;9.40;7.90;;;;;;;;;;4992688;28;20415;-47
2023/02/14 09:55:14;;;;;;;10.27;7.40;;;;;;;;;;4995751;28;20408;-46
2023/02/14 09:57:44;;;;;;;10.80;8.00;;;;;;;;;;4992451;28;20768;-47
2023/02/14 10:00:19;;;;;;;8.80;7.27;;;;;;;;;;4992699;28;20461;-49
2023/02/14 10:03:02;;;;;;;9.73;7.90;;;;;;;;;;4992044;28;20860;-45
2023/02/14 10:05:30;;;;;;;8.00;6.73;;;;;;;;;;4992949;28;20403;-50
2023/02/14 10:08:16;;;;;;;8.93;7.10;;;;;;;;;;4992487;28;20400;-46
2023/02/14 10:10:50;;;;;;;9.20;7.07;;;;;;;;;;4992940;28;20428;-48
2023/02/14 10:13:29;;;;;;;11.53;8.33;;;;;;;;;;4991563;28;20454;-50
2023/02/14 10:16:02;;;;;;;8.07;6.50;;;;;;;;;;4991878;28;20408;-47
2023/02/14 10:18:33;;;;;;;8.60;7.13;;;;;;;;;;4992842;28;20451;-50
2023/02/14 10:21:01;;;;;;;7.67;6.60;;;;;;;;;;4991134;28;20404;-50
2023/02/14 10:23:30;;;;;;;7.90;7.03;;;;;;;;;;4992424;28;20455;-49
2023/02/14 10:25:59;;;;;;;11.57;6.90;;;;;;;;;;4992546;28;20450;-49
2023/02/14 10:28:34;;;;;;;9.50;7.90;;;;;;;;;;4992015;28;20416;-50
2023/02/14 10:31:12;;;;;;;8.50;7.10;;;;;;;;;;4991656;28;20420;-49
2023/02/14 10:33:38;;;;;;;8.50;6.63;;;;;;;;;;4992476;28;20458;-50
2023/02/14 10:36:11;;;;;;;10.07;7.57;;;;;;;;;;4991938;28;20827;-49
2023/02/14 10:38:52;;;;;;;9.70;7.60;;;;;;;;;;4992228;28;20411;-50
2023/02/14 10:41:23;;;;;;;7.60;6.70;;;;;;;;;;4992164;28;20410;-48
2023/02/14 10:43:55;;;;;;;8.50;7.40;;;;;;;;;;4991976;28;20443;-48
2023/02/14 10:46:40;;;;;;;7.63;6.57;;;;;;;;;;4992444;28;20436;-48
2023/02/14 10:49:25;;;;;;;7.13;6.40;;;;;;;;;;4991783;28;20979;-49
2023/02/14 10:52:03;;;;;;;7.10;6.13;;;;;;;;;;4991923;28;20416;-49
2023/02/14 10:54:35;;;;;;;8.77;6.77;;;;;;;;;;4992224;28;20439;-47
2023/02/14 10:57:21;;;;;;;7.90;6.27;;;;;;;;;;4983813;28;20950;-47
2023/02/14 10:59:53;;;;;;;7.17;5.87;;;;;;;;;;4991426;28;20514;-49
2023/02/14 11:02:22;;;;;;;10.23;7.47;;;;;;;;;;4991458;28;20423;-49
2023/02/14 11:04:49;;;;;;;9.30;7.10;;;;;;;;;;4985423;28;20432;-45
2023/02/14 11:07:16;;;;;;;7.37;6.60;;;;;;;;;;4979618;28;20426;-45
2023/02/14 11:09:42;;;;;;;9.47;7.10;;;;;;;;;;4981031;28;20467;-45
2023/02/14 11:12:08;;;;;;;9.03;7.07;;;;;;;;;;4985862;28;20409;-46
2023/02/14 11:14:36;;;;;;;10.67;7.00;;;;;;;;;;4981203;28;21007;-43
2023/02/14 11:17:20;;;;;;;8.90;6.70;;;;;;;;;;4989638;28;20506;-43
2023/02/14 11:19:56;;;;;;;9.07;7.30;;;;;;;;;;4994589;28;20446;-43
2023/02/14 11:22:28;;;;;;;10.47;6.77;;;;;;;;;;4995181;28;20457;-43
2023/02/14 11:25:02;;;;;;;8.47;7.00;;;;;;;;;;4995614;28;20417;-42
2023/02/14 11:27:28;;;;;;;7.60;6.80;;;;;;;;;;4995519;28;20515;-46
2023/02/14 11:29:54;;;;;;;12.40;6.73;;;;;;;;;;4995130;28;20471;-43
2023/02/14 11:32:24;;;;;;;10.20;7.40;;;;;;;;;;4994931;28;20563;-44
2023/02/14 11:34:56;;;;;;;8.30;7.17;;;;;;;;;;4995457;28;20436;-43
2023/02/14 11:37:22;;;;;;;8.20;7.10;;;;;;;;;;4995704;28;20767;-43
2023/02/14 11:39:53;;;;;;;9.70;7.10;;;;;;;;;;4995211;28;20431;-46
2023/02/14 11:42:38;;;;;;;8.30;7.50;;;;;;;;;;4995046;28;20181;-42
2023/02/14 11:45:05;;;;;;;9.97;6.73;;;;;;;;;;4995664;28;20450;-42
2023/02/14 11:47:32;;;;;;;9.97;7.50;;;;;;;;;;4995399;28;20427;-46
2023/02/14 11:50:04;;;;;;;6.87;6.20;;;;;;;;;;4995041;28;20831;-43
2023/02/14 11:52:32;;;;;;;9.00;7.10;;;;;;;;;;4994691;28;20403;-43
2023/02/14 11:54:58;;;;;;;8.80;6.80;;;;;;;;;;4999108;28;20750;-43
2023/02/14 11:57:26;;;;;;;8.70;7.10;;;;;;;;;;5013804;28;20413;-43
2023/02/14 11:59:53;;;;;;;9.43;6.93;;;;;;;;;;4998063;28;20492;-43
2023/02/14 12:02:19;;;;;;;8.77;7.00;;;;;;;;;;4995983;28;20499;-43
2023/02/14 12:04:46;;;;;;;9.17;6.63;;;;;;;;;;4995120;28;20503;-43
2023/02/14 12:07:24;;;;;;;7.73;6.93;;;;;;;;;;4994877;28;20212;-43
2023/02/14 12:10:04;;;;;;;9.23;6.80;;;;;;;;;;4994776;28;20478;-46
2023/02/14 12:12:30;;;;;;;7.97;7.17;;;;;;;;;;4994488;28;20762;-43
2023/02/14 12:15:15;;;;;;;12.20;7.80;;;;;;;;;;4994905;28;20506;-43
2023/02/14 12:17:44;;;;;;;9.93;7.43;;;;;;;;;;4994681;28;20466;-45
2023/02/14 12:20:14;;;;;;;9.40;6.93;;;;;;;;;;4994829;28;20463;-44
2023/02/14 12:22:51;;;;;;;9.57;7.60;;;;;;;;;;4993916;28;20396;-42
2023/02/14 12:25:20;;;;;;;10.60;7.53;;;;;;;;;;4994822;28;20392;-43
2023/02/14 12:27:55;;;;;;;8.33;7.17;;;;;;;;;;4994693;28;20423;-48
2023/02/14 12:30:23;;;;;;;12.30;7.77;;;;;;;;;;4994348;28;20536;-42
2023/02/14 12:32:53;;;;;;;9.47;7.40;;;;;;;;;;4993970;28;20439;-44
2023/02/14 12:35:19;;;;;;;10.17;7.03;;;;;;;;;;4994592;28;20420;-45
2023/02/14 12:37:44;;;;;;;7.83;6.90;;;;;;;;;;4994660;28;20412;-43
2023/02/14 12:40:15;;;;;;;20.33;8.07;;;;;;;;;;4994322;28;20432;-42
2023/02/14 12:42:57;;;;;;;9.80;7.57;;;;;;;;;;4993345;28;20181;-43
2023/02/14 12:45:29;;;;;;;13.20;7.97;;;;;;;;;;4994521;28;20512;-43
2023/02/14 12:47:55;;;;;;;9.37;7.20;;;;;;;;;;4994196;28;20872;-44
2023/02/14 12:50:26;;;;;;;8.30;7.17;;;;;;;;;;4992637;28;20555;-43
2023/02/14 12:52:54;;;;;;;9.63;7.40;;;;;;;;;;4993233;28;20408;-44
2023/02/14 12:55:23;;;;;;;9.03;6.90;;;;;;;;;;4993885;28;20408;-42
2023/02/14 12:58:04;;;;;;;7.93;6.50;;;;;;;;;;4994360;28;20885;-43
2023/02/14 13:00:35;;;;;;;9.33;7.33;;;;;;;;;;4994038;28;21108;-42
2023/02/14 13:03:19;;;;;;;8.70;6.67;;;;;;;;;;4993679;28;20896;-43
2023/02/14 13:05:48;;;;;;;7.63;6.07;;;;;;;;;;4994055;28;20899;-43
2023/02/14 13:08:20;;;;;;;10.93;6.87;;;;;;;;;;4986205;28;20463;-43
2023/02/14 13:11:01;;;;;;;12.67;6.90;;;;;;;;;;4992973;28;20503;-43
2023/02/14 13:13:44;;;;;;;9.07;7.40;;;;;;;;;;4990991;28;20400;-43
2023/02/14 13:16:26;;;;;;;9.60;7.07;;;;;;;;;;4993876;28;20404;-43
2023/02/14 13:18:58;;;;;;;8.60;7.43;;;;;;;;;;4993695;28;20817;-45
2023/02/14 13:21:25;;;;;;;8.70;6.97;;;;;;;;;;4993155;28;20482;-43
2023/02/14 13:23:55;;;;;;;7.87;6.93;;;;;;;;;;4993671;28;20955;-43
2023/02/14 13:26:30;;;;;;;10.63;6.73;;;;;;;;;;4993256;28;20532;-44
2023/02/14 13:28:58;;;;;;;8.23;6.67;;;;;;;;;;4993077;28;20962;-42
2023/02/14 13:31:24;;;;;;;10.47;7.57;;;;;;;;;;4992263;28;20432;-42
2023/02/14 13:34:00;;;;;;;11.40;6.90;;;;;;;;;;4992482;28;20408;-42
2023/02/14 13:36:26;;;;;;;7.70;6.40;;;;;;;;;;4992705;28;20408;-43
2023/02/14 13:38:53;;;;;;;13.30;7.33;;;;;;;;;;4992664;28;21214;-42
2023/02/14 13:41:21;;;;;;;8.93;7.17;;;;;;;;;;4992199;28;20451;-42
2023/02/14 13:43:46;;;;;;;9.10;6.70;;;;;;;;;;4993243;28;20443;-43
2023/02/14 13:46:14;;;;;;;7.93;6.13;;;;;;;;;;4993400;28;20450;-43
2023/02/14 13:48:40;;;;;;;8.37;6.30;;;;;;;;;;4993007;28;20205;-43
2023/02/14 13:51:07;;;;;;;12.37;7.30;;;;;;;;;;4992881;28;20447;-47
2023/02/14 13:53:47;;;;;;;10.20;6.30;;;;;;;;;;4993326;28;20427;-47
2023/02/14 13:56:16;;;;;;;10.30;7.10;;;;;;;;;;4993035;28;20539;-49
2023/02/14 13:58:48;;;;;;;9.63;6.17;;;;;;;;;;4990696;28;20443;-49
2023/02/14 14:01:33;;;;;;;9.80;7.50;;;;;;;;;;4992265;28;20491;-49
2023/02/14 14:04:00;;;;;;;8.13;6.93;;;;;;;;;;4992923;28;20419;-49
2023/02/14 14:06:26;;;;;;;8.57;6.57;;;;;;;;;;4989499;28;20415;-49
2023/02/14 14:08:55;;;;;;;7.90;6.00;;;;;;;;;;4988182;28;20470;-49
2023/02/14 14:11:20;;;;;;;8.57;6.30;;;;;;;;;;4992578;28;20771;-50
2023/02/14 14:13:49;;;;;;;10.83;6.00;;;;;;;;;;4992760;28;20458;-49
2023/02/14 14:16:19;;;;;;;7.13;5.57;;;;;;;;;;4987093;28;20176;-49
2023/02/14 14:18:45;;;;;;;8.97;6.67;;;;;;;;;;4992667;28;20940;-48
2023/02/14 14:21:16;;;;;;;11.10;7.23;;;;;;;;;;4992506;28;20444;-49
2023/02/14 14:23:42;;;;;;;9.90;7.70;;;;;;;;;;4991560;28;20462;-49
2023/02/14 14:26:27;;;;;;;12.00;7.90;;;;;;;;;;4992934;28;20870;-49
2023/02/14 14:28:53;;;;;;;9.10;7.03;;;;;;;;;;4991889;28;20475;-50
2023/02/14 14:31:20;;;;;;;9.57;6.33;;;;;;;;;;4991730;28;20511;-47
2023/02/14 14:33:46;;;;;;;9.03;6.43;;;;;;;;;;4988564;28;20396;-48
2023/02/14 14:36:21;;;;;;;8.37;7.03;;;;;;;;;;4992240;28;20408;-49
2023/02/14 14:38:49;;;;;;;10.60;7.87;;;;;;;;;;4992281;28;20474;-48
2023/02/14 14:41:15;;;;;;;10.77;6.90;;;;;;;;;;4984686;28;20915;-46
2023/02/14 14:43:41;;;;;;;7.43;6.17;;;;;;;;;;4991880;28;20440;-46
2023/02/14 14:46:15;;;;;;;7.43;6.23;;;;;;;;;;4992085;28;20422;-49
2023/02/14 14:48:45;;;;;;;12.90;6.23;;;;;;;;;;4990700;28;20533;-48
2023/02/14 14:51:22;;;;;;;9.30;6.00;;;;;;;;;;4992325;28;20551;-49
2023/02/14 14:53:51;;;;;;;10.07;6.03;;;;;;;;;;4991931;28;20406;-46
2023/02/14 14:56:21;;;;;;;9.10;6.37;;;;;;;;;;4992161;28;20833;-49
2023/02/14 14:58:47;;;;;;;9.07;6.80;;;;;;;;;;4991998;28;20438;-49
2023/02/14 15:01:27;;;;;;;8.13;6.17;;;;;;;;;;4991944;28;20430;-49
2023/02/14 15:03:53;;;;;;;7.73;6.73;;;;;;;;;;4991971;28;20844;-50